• Join FlightAware (Why Join?)
  • Login
  • US Flag 
03:33PM EST


 

Airport Tracker/Info


-or-


 

Live Flight TrackerFlight Track Log ✈ ASQ5458 ✈ 18-Apr-2013 ✈ KATL - CYYZ

Flight Track Log - Related Links

Times and Time Zones

All times are in EDT time to prevent confusion due to time zone crossing. See the ASQ5458 flight status page for this flight to view local times or setup timezone preferences in your user account.

Time Position Orientation Groundspeed Altitude Reporting Facility
EDT Latitude Longitude Course Direction KTS MPH feet Rate Location/Type
05:56PM 33.6500 -84.4000 90° East 163 188 2,200  Level Atlanta TRACON
05:57PM 33.6500 -84.3167 90° East 236 272 3,800 1,920 Climbing Atlanta TRACON
05:58PM 33.6667 -84.2333 76° East 274 315 6,100 2,400 Climbing Atlanta TRACON
05:59PM 33.7333 -84.1833 32° Northeast 309 356 8,600 2,040 Climbing Atlanta TRACON
06:00PM 33.8000 -84.1833 360° North 317 365 10,000 1,680 Climbing Atlanta TRACON
06:02PM 33.9819 -84.2767 337° Northwest 387 445 13,400 1,860 Climbing Atlanta Center
06:03PM 34.0861 -84.2794 359° North 358 412 15,400 1,980 Climbing Atlanta Center
06:04PM 34.1969 -84.2800 360° North 385 443 17,400 1,740 Climbing Atlanta Center
06:05PM 34.3053 -84.2778 North 392 451 18,900 1,500 Climbing Atlanta Center
06:06PM 34.4203 -84.2503 11° North 408 470 20,500 1,800 Climbing Atlanta Center
06:07PM 34.5331 -84.2228 11° North 408 470 22,500 1,740 Climbing Atlanta Center
06:08PM 34.6478 -84.1953 11° North 414 476 24,000 1,200 Climbing Atlanta Center
06:09PM 34.7625 -84.1703 10° North 414 476 25,000 960 Climbing Atlanta Center
06:10PM 34.8836 -84.1425 11° North 426 490 26,000 1,080 Climbing Atlanta Center
06:11PM 35.0067 -84.1122 11° North 437 503 27,200 1,440 Climbing Atlanta Center
06:12PM 35.1300 -84.0844 10° North 444 511 28,900 1,260 Climbing Atlanta Center
06:13PM 35.2508 -84.0539 12° North 444 511 29,800 780 Climbing Atlanta Center
06:14PM 35.3719 -84.0233 12° North 444 511 30,500 600 Climbing Atlanta Center
06:15PM 35.4972 -83.9928 11° North 449 517 31,000 240 Climbing Atlanta Center
06:16PM 35.6306 -83.9622 11° North 455 524 31,000  Level Atlanta Center
06:17PM 35.7600 -83.9314 11° North 465 535 31,000  Level Atlanta Center
06:18PM 35.8872 -83.8978 12° North 471 542 31,100 780 Climbing Atlanta Center
06:19PM 36.0039 -83.8333 24° Northeast 454 522 32,600 900 Climbing Atlanta Center
06:20PM 36.1164 -83.7611 27° Northeast 448 516 33,000 180 Climbing Atlanta Center
06:21PM 36.2331 -83.6886 27° Northeast 448 516 33,000  Level Atlanta Center
06:23PM 36.4017 -83.5794 28° Northeast 483 556 33,000  Level Indianapolis Center
06:24PM 36.5281 -83.5006 27° Northeast 493 567 33,000  Level Indianapolis Center
06:25PM 36.6469 -83.4200 29° Northeast 484 557 33,000  Level Indianapolis Center
06:26PM 36.7556 -83.3175 37° Northeast 487 560 33,000  Level Indianapolis Center
06:27PM 36.8831 -83.1975 37° Northeast 487 560 33,000  Level Indianapolis Center
06:28PM 36.9939 -83.0944 37° Northeast 490 564 33,000  Level Indianapolis Center
06:29PM 37.1067 -82.9875 37° Northeast 496 571 33,000  Level Indianapolis Center
06:30PM 37.2164 -82.8803 38° Northeast 494 568 33,000  Level Indianapolis Center
06:31PM 37.3275 -82.7744 37° Northeast 496 571 33,000  Level Indianapolis Center
06:32PM 37.4389 -82.6669 37° Northeast 501 577 33,000  Level Indianapolis Center
06:33PM 37.5497 -82.5600 37° Northeast 500 575 33,000  Level Indianapolis Center
06:34PM 37.6594 -82.4511 38° Northeast 502 578 33,000  Level Indianapolis Center
06:35PM 37.7886 -82.3250 38° Northeast 502 578 33,000  Level Indianapolis Center
06:36PM 37.9000 -82.2183 37° Northeast 500 575 33,000  Level Indianapolis Center
06:37PM 37.9964 -82.1217 38° Northeast 501 577 33,000  Level Indianapolis Center
06:38PM 38.1278 -81.9925 38° Northeast 498 573 33,000  Level Indianapolis Center
06:39PM 38.2369 -81.8833 38° Northeast 499 574 33,000  Level Indianapolis Center
06:40PM 38.3464 -81.7756 38° Northeast 496 571 33,000  Level Indianapolis Center
06:41PM 38.4594 -81.6761 35° Northeast 494 568 33,000  Level Indianapolis Center
06:42PM 38.5731 -81.5786 34° Northeast 494 568 33,000  Level Indianapolis Center
06:43PM 38.7006 -81.4694 34° Northeast 496 571 33,000  Level Indianapolis Center
06:44PM 38.8175 -81.3672 34° Northeast 500 575 33,000  Level Indianapolis Center
06:45PM 38.9308 -81.2672 34° Northeast 496 571 33,000  Level Indianapolis Center
06:46PM 39.0433 -81.1689 34° Northeast 491 565 33,000  Level Indianapolis Center
06:47PM 39.1558 -81.0703 34° Northeast 490 564 33,000  Level Indianapolis Center
06:48PM 39.2686 -80.9697 35° Northeast 493 567 33,000  Level Indianapolis Center
06:49PM 39.4011 -80.8511 35° Northeast 484 557 33,000  Level Indianapolis Center
06:51PM 39.5136 -80.7514 34° Northeast 486 559 33,000  Level Indianapolis Center
06:52PM 39.6256 -80.6517 34° Northeast 488 562 33,000  Level Indianapolis Center
06:53PM 39.7469 -80.5733 26° Northeast 493 567 33,000  Level Indianapolis Center
06:54PM 39.8728 -80.5278 16° North 477 549 33,000  Level Indianapolis Center
06:55PM 40.0047 -80.4858 14° North 477 549 33,000  Level Indianapolis Center
06:56PM 40.1325 -80.4425 15° North 473 544 33,000  Level Indianapolis Center
06:57PM 40.2633 -80.3986 14° North 479 551 33,000  Level Indianapolis Center
06:58PM 40.4239 -80.3467 14° North 485 558 33,000  Level Indianapolis Center
06:59PM 40.5442 -80.3097 13° North 479 551 33,000  Level Cleveland Center
07:00PM 40.6775 -80.2656 14° North 486 559 33,000  Level Cleveland Center
07:01PM 40.8108 -80.2156 16° North 491 565 33,000  Level Cleveland Center
07:02PM 40.9397 -80.1461 22° Northeast 491 565 33,000  Level Cleveland Center
07:03PM 41.0689 -80.0764 22° Northeast 496 571 33,000  Level Cleveland Center
07:04PM 41.1956 -80.0064 23° Northeast 496 571 33,000  Level Cleveland Center
07:05PM 41.3203 -79.9417 21° North 491 565 33,000  Level Cleveland Center
07:06PM 41.4492 -79.8683 23° Northeast 491 565 33,000  Level Cleveland Center
07:07PM 41.5758 -79.7978 23° Northeast 491 565 33,000 -600 Level Cleveland Center
07:08PM 41.7067 -79.7236 23° Northeast 497 572 31,900 -1,200 Descending Cleveland Center
07:09PM 41.8311 -79.6525 23° Northeast 491 565 30,700 -1,200 Descending Cleveland Center
07:10PM 41.9597 -79.5808 23° Northeast 491 565 29,600 -1,200 Descending Cleveland Center
07:11PM 42.0864 -79.5089 23° Northeast 491 565 28,400 -1,200 Descending Cleveland Center
07:12PM 42.2128 -79.4367 23° Northeast 491 565 27,200 -1,200 Descending Cleveland Center
07:13PM 42.3372 -79.3669 22° Northeast 491 565 26,000 -1,200 Descending Cleveland Center
07:14PM 42.4614 -79.2942 23° Northeast 491 565 24,800 -1,260 Descending Cleveland Center
07:15PM 42.5967 -79.2831 North 481 554 23,500 -1,260 Descending Cleveland Center
07:16PM 42.7344 -79.2969 356° North 481 554 22,300 -1,500 Descending Cleveland Center
07:17PM 42.8681 -79.3114 355° North 487 560 20,600 -2,160 Descending Cleveland Center
07:18PM 43.0167 -79.3167 359° North 450 518 17,500 -2,340 Descending Toronto Center
07:19PM 43.1333 -79.3167 360° North 420 483 15,400 -2,040 Descending Toronto Center
07:20PM 43.2500 -79.3333 354° North 400 460 13,500 -1,620 Descending Toronto Center
07:21PM 43.3333 -79.3500 352° North 350 403 12,200 -900 Descending Toronto Center
07:22PM 43.4167 -79.4000 336° Northwest 320 368 11,700 -1,140 Descending Toronto Center
07:23PM 43.4833 -79.4500 331° Northwest 290 334 10,000 -1,860 Descending Toronto Center
07:24PM 43.5667 -79.5000 337° Northwest 290 334 8,000 -1,320 Descending Toronto Center
07:25PM 43.6333 -79.4500 28° Northeast 290 334 7,400 -540 Descending Toronto Center
07:26PM 43.6833 -79.3833 44° Northeast 280 322 7,000 -600 Descending Toronto Center
07:27PM 43.7500 -79.2833 47° Northeast 290 334 6,200 -1,020 Descending Toronto Center
07:28PM 43.8000 -79.2167 44° Northeast 280 322 5,000 -1,140 Descending Toronto Center
07:29PM 43.8500 -79.2333 346° North 240 276 4,000 -900 Descending Toronto Center
07:30PM 43.8500 -79.3167 270° West 180 207 3,200 -540 Descending Toronto Center
07:31PM 43.8333 -79.3333 216° Southwest 140 161 3,000 -120 Descending Toronto Center
07:32PM 43.8167 -79.3833 245° Southwest 130 150 3,000  Level Toronto Center
07:33PM 43.7833 -79.4000 200° South 130 150 3,000  Level Toronto Center
07:34PM 43.7667 -79.4500 245° Southwest 130 150 3,000 -360 Level Toronto Center
07:35PM 43.7333 -79.5000 227° Southwest 130 150 2,300 -720 Descending Toronto Center
07:36PM 43.7000 -79.5167 200° South 140 161 1,600 -720 Descending Toronto Center
07:37PM 43.6833 -79.5667 245° Southwest 140 161 900 -720 Descending Toronto Center